首页
METAR-TAF:

METAR-TAF

机场 :

Lansing Municipal Airport

兰辛, 伊利诺伊州, 美国

纬度: 41-32-24N, 经度: 087-31-56W, 海拔: 188米

当前天气观测

该预报发布于18分钟前的14:55 UTC
风速11节,风向,有时为16节阵风
温度 23°C
湿度 78%
气压 1014 hPa
能見度: 16.1公里
散云层高于6500英尺
阴天层高于11000英尺

METAR: KIGQ 221455Z AUTO 19011G16KT 10SM SCT065 OVC110 23/19 A2994 RMK AO2 T02310186

时间: 10:13 (15:13 UTC)


TAF: 丢失

超过4000个机场的气象观测和天气预报(METAR&TAF报告)。

可查询的气象台以黄色和红色小点在地图上表示。

将鼠标移到小点上方,可查看气象台名称。

然后点击查看天气观测和预报。

如需切换地图:点击带黑十字的绿色按钮放大地图;点击带横线的绿色按钮缩小地图;或者点击绿色箭头查看邻近地区的地图。


METAR-TAF: